createdAt,value
2022-08-05T00:02:50.685Z,101440.0
2022-08-05T00:07:59.997Z,101440.0
2022-08-05T00:12:56.672Z,101420.0
2022-08-05T00:17:46.414Z,101420.0
2022-08-05T00:22:47.017Z,101420.0
2022-08-05T00:27:46.416Z,101420.0
2022-08-05T00:32:46.436Z,101420.0
2022-08-05T00:37:53.604Z,101420.0
2022-08-05T00:42:49.152Z,101420.0
2022-08-05T00:47:56.763Z,101420.0
2022-08-05T00:52:46.836Z,101410.0
2022-08-05T00:57:58.300Z,101410.0
2022-08-05T01:02:46.447Z,101410.0
2022-08-05T01:08:40.111Z,101420.0
2022-08-05T01:13:03.248Z,101410.0
2022-08-05T01:17:46.449Z,101400.0
2022-08-05T01:22:47.123Z,101400.0
2022-08-05T01:27:50.725Z,101430.0
2022-08-05T01:32:46.452Z,101440.0
2022-08-05T01:37:46.459Z,101460.0
2022-08-05T01:42:46.462Z,101480.0
2022-08-05T01:47:46.456Z,101490.0
2022-08-05T01:52:49.962Z,101490.0
2022-08-05T01:58:10.637Z,101500.0
2022-08-05T02:02:54.280Z,101470.0
2022-08-05T02:07:56.316Z,101490.0
2022-08-05T02:12:46.475Z,101510.0
2022-08-05T02:18:31.818Z,101500.0
2022-08-05T02:22:46.479Z,101480.0
2022-08-05T02:27:58.272Z,101470.0
2022-08-05T02:32:46.490Z,101450.0
2022-08-05T02:37:47.822Z,101460.0
2022-08-05T02:42:52.660Z,101490.0
2022-08-05T02:48:12.086Z,101490.0
2022-08-05T02:52:46.491Z,101470.0
2022-08-05T02:58:11.266Z,101470.0
2022-08-05T03:02:46.498Z,101500.0
2022-08-05T03:08:04.525Z,101480.0
2022-08-05T03:12:46.509Z,101470.0
2022-08-05T03:17:46.511Z,101440.0
2022-08-05T03:22:49.910Z,101430.0
2022-08-05T03:28:00.080Z,101420.0
2022-08-05T03:32:46.848Z,101440.0
2022-08-05T03:37:46.905Z,101450.0
2022-08-05T03:42:52.582Z,101460.0
2022-08-05T03:47:46.520Z,101460.0
2022-08-05T03:54:58.810Z,101460.0
2022-08-05T03:57:46.805Z,101470.0
2022-08-05T04:02:57.672Z,101480.0
2022-08-05T04:07:58.062Z,101470.0
2022-08-05T04:12:46.738Z,101480.0
2022-08-05T04:17:56.117Z,101480.0
2022-08-05T04:22:46.553Z,101470.0
2022-08-05T04:27:57.600Z,101470.0
2022-08-05T04:32:46.552Z,101470.0
2022-08-05T04:38:02.738Z,101500.0
2022-08-05T04:42:46.579Z,101510.0
2022-08-05T04:47:47.195Z,101510.0
2022-08-05T04:52:46.562Z,101500.0
2022-08-05T04:57:47.709Z,101500.0
2022-08-05T05:02:46.629Z,101510.0
2022-08-05T05:07:52.919Z,101500.0
2022-08-05T05:12:46.584Z,101490.0
2022-08-05T05:17:57.051Z,101500.0
2022-08-05T05:22:46.580Z,101500.0
2022-08-05T05:27:53.604Z,101490.0
2022-08-05T05:32:46.581Z,101480.0
2022-08-05T05:37:59.661Z,101500.0
2022-08-05T05:42:47.076Z,101510.0
2022-08-05T05:48:06.035Z,101520.0
2022-08-05T05:52:46.673Z,101520.0
2022-08-05T05:57:52.149Z,101510.0
2022-08-05T06:02:46.609Z,101510.0
2022-08-05T06:08:01.313Z,101510.0
2022-08-05T06:12:46.602Z,101520.0
2022-08-05T06:17:53.110Z,101530.0
2022-08-05T06:22:46.625Z,101530.0
2022-08-05T06:28:12.092Z,101540.0
2022-08-05T06:32:46.855Z,101540.0
2022-08-05T06:37:57.321Z,101560.0
2022-08-05T06:42:46.626Z,101550.0
2022-08-05T06:48:37.016Z,101540.0
2022-08-05T06:52:58.690Z,101540.0
2022-08-05T06:58:02.981Z,101560.0
2022-08-05T07:02:46.634Z,101570.0
2022-08-05T07:07:46.647Z,101570.0
2022-08-05T07:12:49.065Z,101580.0
2022-08-05T07:18:01.163Z,101580.0
2022-08-05T07:22:47.849Z,101590.0
2022-08-05T07:27:58.469Z,101590.0
2022-08-05T07:32:50.880Z,101590.0
2022-08-05T07:37:47.314Z,101610.0
2022-08-05T07:42:46.670Z,101600.0
2022-08-05T07:47:46.676Z,101600.0
2022-08-05T07:52:46.674Z,101600.0
2022-08-05T07:57:57.435Z,101620.0
2022-08-05T08:03:14.270Z,101620.0
2022-08-05T08:08:00.187Z,101620.0
2022-08-05T08:12:49.823Z,101630.0
2022-08-05T08:17:52.779Z,101630.0
2022-08-05T08:22:46.700Z,101620.0
2022-08-05T08:27:51.336Z,101640.0
2022-08-05T08:32:46.706Z,101640.0
2022-08-05T08:37:51.747Z,101650.0
2022-08-05T08:42:50.692Z,101660.0
2022-08-05T08:48:07.010Z,101670.0
2022-08-05T08:52:47.369Z,101670.0
2022-08-05T08:57:58.068Z,101680.0
2022-08-05T09:02:46.728Z,101690.0
2022-08-05T09:07:56.828Z,101690.0
2022-08-05T09:12:51.013Z,101700.0
2022-08-05T09:17:49.416Z,101690.0
2022-08-05T09:22:51.871Z,101700.0
2022-08-05T09:28:05.139Z,101710.0
2022-08-05T09:32:47.020Z,101710.0
2022-08-05T09:38:12.357Z,101710.0
2022-08-05T09:42:48.400Z,101720.0
2022-08-05T09:47:55.857Z,101730.0
2022-08-05T09:52:46.770Z,101730.0
2022-08-05T09:57:46.784Z,101740.0
2022-08-05T10:02:46.815Z,101730.0
2022-08-05T10:08:10.391Z,101750.0
2022-08-05T10:12:49.915Z,101750.0
2022-08-05T10:17:56.683Z,101740.0
2022-08-05T10:22:50.940Z,101760.0
2022-08-05T10:28:13.410Z,101750.0
2022-08-05T10:32:56.258Z,101760.0
2022-08-05T10:37:46.795Z,101750.0
2022-08-05T10:42:46.794Z,101750.0
2022-08-05T10:47:56.094Z,101750.0
2022-08-05T10:52:49.646Z,101750.0
2022-08-05T10:57:46.824Z,101750.0
2022-08-05T11:02:50.593Z,101750.0
2022-08-05T11:08:02.536Z,101760.0
2022-08-05T11:12:50.882Z,101760.0
2022-08-05T11:17:58.917Z,101770.0
2022-08-05T11:22:49.791Z,101780.0
2022-08-05T11:27:51.944Z,101780.0
2022-08-05T11:32:47.936Z,101780.0
2022-08-05T11:38:28.067Z,101790.0
2022-08-05T11:42:46.746Z,101790.0
2022-08-05T11:47:49.485Z,101800.0
2022-08-05T11:52:49.484Z,101800.0
2022-08-05T11:58:09.297Z,101810.0
2022-08-05T12:02:46.809Z,101820.0
2022-08-05T12:08:07.982Z,101820.0
2022-08-05T12:12:58.292Z,101830.0
2022-08-05T12:18:03.652Z,101820.0
2022-08-05T12:22:46.876Z,101840.0
2022-08-05T12:27:53.090Z,101860.0
2022-08-05T12:32:46.877Z,101870.0
2022-08-05T12:37:46.875Z,101870.0
2022-08-05T12:42:46.874Z,101870.0
2022-08-05T12:48:01.638Z,101870.0
2022-08-05T12:52:46.926Z,101890.0
2022-08-05T12:58:38.495Z,101900.0
2022-08-05T13:02:47.244Z,101890.0
2022-08-05T13:07:57.536Z,101900.0
2022-08-05T13:12:51.006Z,101910.0
2022-08-05T13:17:46.802Z,101920.0
2022-08-05T13:22:46.815Z,101930.0
2022-08-05T13:27:46.815Z,101920.0
2022-08-05T13:32:50.561Z,101920.0
2022-08-05T13:37:46.819Z,101920.0
2022-08-05T13:42:46.954Z,101920.0
2022-08-05T13:48:08.861Z,101930.0
2022-08-05T13:52:46.820Z,101940.0
2022-08-05T13:57:49.049Z,101930.0
2022-08-05T14:02:46.861Z,101930.0
2022-08-05T14:08:01.223Z,101940.0
2022-08-05T14:12:48.814Z,101950.0
2022-08-05T14:17:46.845Z,101940.0
2022-08-05T14:22:50.285Z,101950.0
2022-08-05T14:27:47.341Z,101970.0
2022-08-05T14:32:46.856Z,101970.0
2022-08-05T14:37:48.277Z,101970.0
2022-08-05T14:42:46.876Z,101970.0
2022-08-05T14:48:03.393Z,101980.0
2022-08-05T14:52:53.515Z,101990.0
2022-08-05T14:57:54.369Z,101990.0
2022-08-05T15:02:46.911Z,101990.0
2022-08-05T15:08:10.755Z,101990.0
2022-08-05T15:13:00.484Z,101980.0
2022-08-05T15:17:51.353Z,101990.0
2022-08-05T15:22:54.386Z,102000.0
2022-08-05T15:27:51.907Z,102010.0
2022-08-05T15:32:46.884Z,102000.0
2022-08-05T15:38:33.466Z,102000.0
2022-08-05T15:42:54.208Z,102010.0
2022-08-05T15:47:46.985Z,102010.0
2022-08-05T15:52:52.599Z,102010.0
2022-08-05T15:57:49.117Z,102010.0
2022-08-05T16:02:47.080Z,102010.0
2022-08-05T16:07:46.999Z,102010.0
2022-08-05T16:12:46.994Z,102030.0
2022-08-05T16:17:51.087Z,102040.0
2022-08-05T16:22:47.001Z,102040.0
2022-08-05T16:28:04.993Z,102040.0
2022-08-05T16:32:47.009Z,102040.0
2022-08-05T16:38:15.172Z,102040.0
2022-08-05T16:42:47.013Z,102050.0
2022-08-05T16:47:54.135Z,102070.0
2022-08-05T16:52:47.028Z,102060.0
2022-08-05T16:57:53.215Z,102070.0
2022-08-05T17:02:47.031Z,102090.0
2022-08-05T17:07:47.350Z,102090.0
2022-08-05T17:12:50.528Z,102090.0
2022-08-05T17:17:51.260Z,102100.0
2022-08-05T17:22:47.046Z,102110.0
2022-08-05T17:27:47.047Z,102110.0
2022-08-05T17:32:47.047Z,102120.0
2022-08-05T17:37:47.048Z,102120.0
2022-08-05T17:42:51.142Z,102130.0
2022-08-05T17:47:49.927Z,102140.0
2022-08-05T17:52:53.032Z,102150.0
2022-08-05T17:57:48.644Z,102150.0
2022-08-05T18:02:47.054Z,102150.0
2022-08-05T18:07:47.054Z,102160.0
2022-08-05T18:12:47.061Z,102180.0
2022-08-05T18:17:58.994Z,102180.0
2022-08-05T18:22:54.522Z,102190.0
2022-08-05T18:27:51.935Z,102200.0
2022-08-05T18:32:53.624Z,102220.0
2022-08-05T18:37:47.066Z,102210.0
2022-08-05T18:42:47.152Z,102230.0
2022-08-05T18:47:51.426Z,102220.0
2022-08-05T18:52:50.465Z,102240.0
2022-08-05T18:57:53.061Z,102240.0
2022-08-05T19:02:47.177Z,102250.0
2022-08-05T19:07:47.072Z,102250.0
2022-08-05T19:12:47.071Z,102260.0
2022-08-05T19:17:59.883Z,102270.0
2022-08-05T19:22:47.081Z,102260.0
2022-08-05T19:27:49.880Z,102290.0
2022-08-05T19:32:47.084Z,102290.0
2022-08-05T19:38:06.567Z,102310.0
2022-08-05T19:43:04.975Z,102300.0
2022-08-05T19:47:47.083Z,102310.0
2022-08-05T19:52:47.788Z,102330.0
2022-08-05T19:58:19.554Z,102330.0
2022-08-05T20:02:47.088Z,102330.0
2022-08-05T20:07:49.026Z,102340.0
2022-08-05T20:12:48.971Z,102340.0
2022-08-05T20:17:47.098Z,102350.0
2022-08-05T20:22:47.099Z,102350.0
2022-08-05T20:27:47.096Z,102360.0
2022-08-05T20:32:47.105Z,102360.0
2022-08-05T20:38:06.337Z,102370.0
2022-08-05T20:42:47.106Z,102380.0
2022-08-05T20:47:47.112Z,102380.0
2022-08-05T20:52:47.109Z,102390.0
2022-08-05T20:57:47.116Z,102380.0
2022-08-05T21:02:51.909Z,102390.0
2022-08-05T21:07:51.999Z,102400.0
2022-08-05T21:13:08.959Z,102410.0
2022-08-05T21:17:47.135Z,102410.0
2022-08-05T21:22:47.129Z,102410.0
2022-08-05T21:27:47.610Z,102400.0
2022-08-05T21:32:47.127Z,102410.0
2022-08-05T21:37:52.866Z,102410.0
2022-08-05T21:42:47.408Z,102420.0
2022-08-05T21:47:56.698Z,102420.0
2022-08-05T21:52:47.606Z,102430.0
2022-08-05T21:57:47.142Z,102440.0
2022-08-05T22:02:47.138Z,102440.0
2022-08-05T22:07:59.259Z,102440.0
2022-08-05T22:12:50.865Z,102450.0
2022-08-05T22:17:48.661Z,102450.0
2022-08-05T22:22:47.152Z,102450.0
2022-08-05T22:28:08.641Z,102460.0
2022-08-05T22:32:47.155Z,102460.0
2022-08-05T22:37:58.860Z,102460.0
2022-08-05T22:42:57.876Z,102460.0
2022-08-05T22:47:49.807Z,102480.0
2022-08-05T22:52:47.163Z,102480.0
2022-08-05T22:57:47.170Z,102480.0
2022-08-05T23:02:47.249Z,102490.0
2022-08-05T23:07:48.396Z,102480.0
2022-08-05T23:12:47.174Z,102490.0
2022-08-05T23:18:01.354Z,102490.0
2022-08-05T23:22:48.192Z,102500.0
2022-08-05T23:28:00.149Z,102500.0
2022-08-05T23:32:47.188Z,102510.0
2022-08-05T23:37:47.641Z,102510.0
2022-08-05T23:42:47.409Z,102510.0
2022-08-05T23:47:47.699Z,102520.0
2022-08-05T23:52:50.057Z,102520.0
2022-08-05T23:57:48.841Z,102520.0
